createdAt,value
2018-02-27T00:01:42.955Z,5
2018-02-27T00:11:42.829Z,3
2018-02-27T00:21:42.815Z,3
2018-02-27T00:31:42.811Z,3
2018-02-27T00:41:42.796Z,3
2018-02-27T00:51:42.879Z,2
2018-02-27T01:01:43.120Z,3
2018-02-27T01:11:42.788Z,3
2018-02-27T01:21:42.762Z,3
2018-02-27T01:31:42.826Z,3
2018-02-27T01:41:42.848Z,3
2018-02-27T01:51:42.785Z,3
2018-02-27T02:01:42.849Z,3
2018-02-27T02:11:42.832Z,3
2018-02-27T02:21:42.797Z,4
2018-02-27T02:31:42.863Z,3
2018-02-27T02:41:42.837Z,3
2018-02-27T02:51:42.771Z,3
2018-02-27T03:01:42.665Z,3
2018-02-27T03:11:42.779Z,4
2018-02-27T03:21:42.784Z,4
2018-02-27T03:31:42.831Z,4
2018-02-27T03:41:42.732Z,5
2018-02-27T03:51:42.727Z,5
2018-02-27T04:01:42.811Z,5
2018-02-27T04:11:42.708Z,5
2018-02-27T04:21:42.668Z,4
2018-02-27T04:31:42.769Z,4
2018-02-27T04:41:42.705Z,5
2018-02-27T04:51:42.635Z,5
2018-02-27T05:01:42.680Z,4
2018-02-27T05:11:42.634Z,5
2018-02-27T05:21:42.693Z,5
2018-02-27T05:31:42.743Z,5
2018-02-27T05:41:42.614Z,6
2018-02-27T05:51:42.831Z,6
2018-02-27T06:01:42.704Z,5
2018-02-27T06:11:42.688Z,7
2018-02-27T06:21:42.704Z,7
2018-02-27T06:31:42.688Z,6
2018-02-27T06:41:42.660Z,7
2018-02-27T06:51:42.638Z,8
2018-02-27T07:01:42.615Z,9
2018-02-27T07:11:42.611Z,9
2018-02-27T07:21:42.913Z,8
2018-02-27T07:31:42.694Z,8
2018-02-27T07:41:42.617Z,9
2018-02-27T07:51:42.747Z,8
2018-02-27T08:01:42.599Z,8
2018-02-27T08:11:42.656Z,7
2018-02-27T08:21:42.676Z,7
2018-02-27T08:31:42.590Z,9
2018-02-27T08:41:43.244Z,7
2018-02-27T08:51:43.747Z,6
2018-02-27T09:01:42.725Z,5
2018-02-27T09:11:43.399Z,5
2018-02-27T09:21:42.824Z,4
2018-02-27T09:31:42.800Z,5
2018-02-27T09:41:42.551Z,6
2018-02-27T09:51:42.778Z,5
2018-02-27T10:01:42.596Z,5
2018-02-27T10:11:42.703Z,4
2018-02-27T10:21:42.661Z,6
2018-02-27T10:31:42.593Z,5
2018-02-27T10:41:42.556Z,5
2018-02-27T10:51:42.587Z,3
2018-02-27T11:01:42.545Z,6
2018-02-27T11:11:42.568Z,5
2018-02-27T11:21:42.574Z,4
2018-02-27T11:31:42.540Z,5
2018-02-27T11:41:42.540Z,5
2018-02-27T11:51:42.515Z,5
2018-02-27T12:01:42.592Z,5
2018-02-27T12:11:42.540Z,5
2018-02-27T12:21:42.559Z,5
2018-02-27T12:31:42.575Z,5
2018-02-27T12:41:42.615Z,4
2018-02-27T12:51:42.586Z,6
2018-02-27T13:01:42.648Z,5
2018-02-27T13:11:42.551Z,5
2018-02-27T13:21:42.616Z,4
2018-02-27T13:31:42.528Z,4
2018-02-27T13:41:42.601Z,5
2018-02-27T13:51:42.572Z,3
2018-02-27T14:01:42.626Z,5
2018-02-27T14:11:42.518Z,5
2018-02-27T14:21:42.540Z,7
2018-02-27T14:31:42.526Z,6
2018-02-27T14:41:42.473Z,6
2018-02-27T14:51:42.675Z,6
2018-02-27T15:01:42.465Z,5
2018-02-27T15:11:42.513Z,4
2018-02-27T15:21:42.551Z,5
2018-02-27T15:31:42.621Z,6
2018-02-27T15:41:42.748Z,6
2018-02-27T15:51:42.532Z,5
2018-02-27T16:01:42.554Z,7
2018-02-27T16:11:42.556Z,8
2018-02-27T16:21:42.524Z,8
2018-02-27T16:31:42.575Z,7
2018-02-27T16:41:42.562Z,8
2018-02-27T16:51:42.605Z,8
2018-02-27T17:01:42.502Z,9
2018-02-27T17:11:42.548Z,9
2018-02-27T17:21:42.499Z,7
2018-02-27T17:31:42.720Z,7
2018-02-27T17:41:42.518Z,7
2018-02-27T17:51:42.502Z,7
2018-02-27T18:01:42.653Z,7
2018-02-27T18:11:42.515Z,8
2018-02-27T18:21:42.488Z,7
2018-02-27T18:31:42.492Z,6
2018-02-27T18:41:42.500Z,8
2018-02-27T18:51:42.424Z,9
2018-02-27T19:02:05.936Z,11
2018-02-27T19:11:42.504Z,8
2018-02-27T19:21:46.669Z,7
2018-02-27T19:31:44.140Z,7
2018-02-27T19:41:42.516Z,7
2018-02-27T19:51:42.547Z,7
2018-02-27T20:01:44.326Z,7
2018-02-27T20:11:42.705Z,7
2018-02-27T20:21:42.477Z,6
2018-02-27T20:31:42.668Z,7
2018-02-27T20:41:42.528Z,7
2018-02-27T20:51:42.540Z,7
2018-02-27T21:01:42.623Z,7
2018-02-27T21:11:42.453Z,8
2018-02-27T21:21:42.338Z,8
2018-02-27T21:31:42.495Z,8
2018-02-27T21:41:42.480Z,8
2018-02-27T21:51:42.410Z,9
2018-02-27T22:01:42.556Z,9
2018-02-27T22:13:50.455Z,9
2018-02-27T22:21:42.332Z,9
2018-02-27T22:31:42.443Z,10
2018-02-27T22:41:42.360Z,10
2018-02-27T22:51:42.298Z,10
2018-02-27T23:01:42.352Z,11
2018-02-27T23:11:42.280Z,10
2018-02-27T23:21:42.382Z,10
2018-02-27T23:31:42.745Z,11
2018-02-27T23:41:42.324Z,12
2018-02-27T23:51:42.379Z,10
